Weather observations for the past three days for
Vero Beach, Vero Beach Municipal Airport
Metric (Imperial)
Date Time (edt) Wind (kph) Vis. (km) Weather Sky Cond. Temperature (ºC) Relative Humidity Wind Chill (°C) Heat Index (°C) Pressure Precipitation (cm)
Air Dwpt 6 hour altimeter (cm) sea level (mb) 1 hr 3 hr 6 hr
Max. Min.
07 17:53 SE 22 16.09 A Few Clouds FEW028 29.4 22.2 65% 33 76 1013.2
07 16:53 SE 19 16.09 A Few Clouds FEW028 29.4 22.2 65% 33 76.02 1013.4
07 15:53 E 20 16.09 Mostly Cloudy BKN065 30.6 21.7 59% 34 76.05 1013.8
07 14:53 E 20 16.09 Partly Cloudy SCT055 30.6 21.1 57% 33 76.1 1014.5
07 13:53 W 13 16.09 Mostly Cloudy BKN055 33.3 18.9 33.3 22.8 43% 35 76.15 1015.2
07 12:53 S 11 16.09 A Few Clouds FEW046 32.2 19.4 47% 34 76.17 1015.5
07 11:53 SW 13 16.09 A Few Clouds FEW040 30.6 19.4 51% 32 76.23 1016.2
07 10:53 S 15 16.09 Fair CLR 30 20 55% 32 76.28 1016.8
07 09:53 Vrbl 11 16.09 Fair CLR 28.3 18.9 57% 30 76.28 1016.9
07 08:53 SW 13 16.09 Fair CLR 25.6 20 71% 27 76.28 1016.8
07 07:53 SW 7 16.09 Fair CLR 22.8 19.4 22.8 17.2 81% 76.28 1016.7
07 06:53 Vrbl 9 14.48 Fair CLR 18.3 17.8 97% 76.25 1016.5
07 05:53 Calm 12.87 Fair CLR 17.8 17.2 96% 76.17 1015.5
07 04:53 Calm 16.09 Fair CLR 18.3 17.2 93% 76.12 1014.9
07 03:53 Calm 16.09 Fair CLR 17.8 17.2 96% 76.12 1014.9
07 02:53 SW 7 16.09 Fair CLR 21.1 18.9 87% 76.17 1015.5
07 01:53 SW 9 16.09 Fair CLR 22.8 18.9 26.1 22.8 79% 76.23 1016.0
07 00:53 SE 13 16.09 Fair CLR 24.4 19.4 74% 25 76.23 1016.2
06 23:53 SE 15 16.09 Fair CLR 24.4 19.4 74% 25 76.23 1016.2
06 22:53 E 15 16.09 Fair CLR 25 19.4 71% 26 76.23 1016.2
06 21:53 E 15 16.09 Fair CLR 25 19.4 71% 26 76.25 1016.5
06 20:53 E 11 16.09 Fair CLR 25.6 18.3 64% 27 76.25 1016.4
06 19:53 SE 15 16.09 Fair CLR 26.1 17.2 30.6 26.1 58% 27 76.23 1016.1
06 18:53 E 17 16.09 Fair CLR 27.8 16.1 49% 28 76.23 1016.2
06 17:53 E 17 16.09 Fair CLR 28.3 17.8 53% 29 76.23 1016.2
06 16:53 SE 20 16.09 Fair CLR 29.4 16.7 46% 30 76.23 1016.2
06 15:53 E 20 16.09 Fair CLR 28.9 17.2 49% 29 76.25 1016.4
06 14:53 SE 20 16.09 Fair CLR 30.6 14.4 37% 30 76.28 1016.9
06 13:53 E 19 16.09 Fair CLR 29.4 16.7 30 21.7 46% 30 76.33 1017.4
06 12:53 SE 19 16.09 Fair CLR 30 16.7 45% 30 76.33 1017.6
06 11:53 E 13 16.09 Fair CLR 28.9 18.3 53% 30 76.38 1018.0
06 10:53 SE 13 16.09 Fair CLR 27.8 20 63% 29 76.35 1017.8
06 09:53 SE 17 16.09 Fair CLR 27.2 21.1 69% 29 76.33 1017.6
06 08:53 E 11 16.09 Fair CLR 26.1 21.1 74% 28 76.3 1017.2
06 07:53 Calm 16.09 Fair CLR 21.7 20.6 23.9 17.8 94% 76.28 1016.9
06 06:53 Calm 11.27 Fair CLR 18.3 17.8 97% 76.25 1016.5
06 05:53 Calm 16.09 Fair CLR 18.3 17.8 97% 76.2 1015.9
06 04:53 Calm 16.09 Fair CLR 19.4 18.3 93% 76.17 1015.5
06 03:53 E 6 16.09 Fair CLR 23.3 19.4 79% 76.2 1015.7
06 02:53 E 7 16.09 Fair CLR 23.3 19.4 79% 76.2 1015.8
06 01:53 E 9 16.09 Fair CLR 23.9 19.4 24.4 23.9 76% 24 76.23 1016.1
06 00:53 E 9 16.09 Fair CLR 23.9 19.4 76% 24 76.25 1016.3
05 23:53 E 13 16.09 Fair CLR 23.9 18.3 71% 25 76.28 1016.8
05 22:53 E 13 16.09 Fair CLR 24.4 18.3 69% 25 76.28 1016.7
05 21:53 E 11 16.09 Fair CLR 23.9 17.2 66% 25 76.25 1016.4
05 20:53 E 13 16.09 Fair CLR 24.4 16.7 62% 25 76.2 1015.7
05 19:53 E 17 16.09 Fair CLR 24.4 16.7 27.8 24.4 62% 25 76.15 1015.2
05 18:53 E 17 16.09 Fair CLR 25.6 17.8 62% 27 76.2 1015.6
05 17:53 E 17 G 30 16.09 A Few Clouds FEW036 26.1 17.8 60% 27 76.17 1015.4
05 16:53 NE 19 G 35 16.09 A Few Clouds FEW031 26.7 17.8 58% 28 76.17 1015.3
05 15:53 NE 24 G 35 16.09 A Few Clouds FEW036 27.8 18.3 56% 29 76.17 1015.5
05 14:53 E 19 16.09 A Few Clouds FEW036 27.2 17.8 57% 28 76.25 1016.3
05 13:53 E 24 16.09 A Few Clouds FEW036 27.2 17.8 27.2 23.9 57% 28 76.25 1016.5
05 12:53 E 22 16.09 Mostly Cloudy BKN065 27.2 17.8 57% 28 76.28 1016.7
05 11:53 E 20 G 33 16.09 A Few Clouds FEW032 26.7 17.8 58% 28 76.3 1016.9
05 10:53 E 22 G 39 16.09 A Few Clouds FEW030 26.1 17.2 58% 27 76.25 1016.5
05 09:53 NE 20 16.09 Fair CLR 25.6 16.7 58% 26 76.25 1016.3
05 08:53 E 19 16.09 Partly Cloudy SCT060 SCT070 23.9 17.2 66% 25 76.23 1015.9
05 07:53 E 17 16.09 Mostly Cloudy BKN060 23.9 17.8 23.9 21.7 69% 25 76.2 1015.7
05 06:53 E 11 16.09 Partly Cloudy SCT027 22.2 17.2 73% 76.15 1015.2
05 05:53 E 11 16.09 A Few Clouds FEW029 22.2 17.2 73% 76.1 1014.6
05 04:53 E 11 16.09 Fair CLR 22.2 17.2 73% 76.07 1014.1
05 03:53 E 11 16.09 Fair CLR 22.2 16.7 71% 76.05 1013.9
05 02:53 E 15 16.09 Fair CLR 22.8 17.2 71% 76.1 1014.4
05 01:53 E 11 16.09 Fair CLR 22.8 16.7 23.3 22.8 69% 76.17 1015.4
05 00:53 E 17 16.09 A Few Clouds FEW028 FEW035 22.8 17.2 71% 76.17 1015.4
04 23:53 E 15 16.09 A Few Clouds FEW030 22.8 17.2 71% 76.2 1015.8
04 22:53 E 15 16.09 A Few Clouds FEW050 22.8 17.2 71% 76.23 1016.0
04 21:53 E 13 16.09 Overcast SCT027 BKN047 OVC055 23.3 17.8 71% 76.23 1016.0
04 20:53 E 17 16.09 Mostly Cloudy FEW028 BKN040 23.3 17.2 69% 76.17 1015.6
04 19:53 E 17 16.09 Mostly Cloudy FEW028 BKN042 23.3 17.2 26.7 23.3 69% 76.15 1015.0
04 18:53 E 17 16.09 Overcast FEW028 BKN042 OVC055 23.3 17.8 71% 76.12 1014.9
Date Time (edt) Wind (kph) Vis. (km) Weather Sky Cond. Air Dwpt Max. Min. Relative Humidity Wind Chill (°C) Heat Index (°C) altimeter (cm) sea level (mb) 1 hr 3 hr 6 hr
6 hour
Temperature (ºC) Pressure Precipitation (cm)